Weather at Dubrovnik Airport

Public forecast

Using degrees Celsius for public forecast. Weather courtesy of forecast.io.

Current aviation weather report (METAR) for Dubrovnik Airport

Report is more than 6 hours old.

2022/11/14 15:30 (retrieved 2 years ago)

LDDU 141530Z 13013KT 9999 FEW023 SCT030 BKN070 18/14 Q1021 NOSIG

Aviation forecast (TAF) for Dubrovnik Airport

Forecast is more than 12 hours old.

2023/02/22 18:28 (retrieved 1 year ago)

TAF GEML 221700Z 2218/2318 27005KT 9999 FEW012 TX19/2313Z TN13/2306Z TAF LDDU 221725Z 2218/2318 07006KT CAVOK TX14/2312Z TN08/2305Z